Time;durP1;ratioP1;P1;durP2;ratioP2;P2;SDS_P1;SDS_P2;PMS_P1;PMS_P2;Temp;Humidity;BMP_temperature;BMP_pressure;BME280_temperature;BME280_humidity;BME280_pressure;Samples;Min_cycle;Max_cycle;Signal;HPM_P1;HPM_P2
2023/03/31 00:01:08;;;;;;;5.57;2.22;;;;;;;;;;5026000;28;20033;-76
2023/03/31 00:04:02;;;;;;;9.75;1.67;;;;;;;;;;5028085;28;20536;-75
2023/03/31 00:06:47;;;;;;;7.57;2.00;;;;;;;;;;5024342;28;20075;-73
2023/03/31 00:09:34;;;;;;;4.25;1.55;;;;;;;;;;5024957;28;20033;-77
2023/03/31 00:12:20;;;;;;;4.75;1.73;;;;;;;;;;5011529;28;20037;-77
2023/03/31 00:15:05;;;;;;;7.05;1.92;;;;;;;;;;5017208;28;20036;-78
2023/03/31 00:17:51;;;;;;;6.82;1.92;;;;;;;;;;5012263;28;20029;-77
2023/03/31 00:20:36;;;;;;;4.32;1.58;;;;;;;;;;5018354;28;20025;-77
2023/03/31 00:23:26;;;;;;;5.95;1.63;;;;;;;;;;5028722;28;20029;-72
2023/03/31 00:26:11;;;;;;;;;;;;;;;;;;5027667;28;20029;-79
2023/03/31 00:28:57;;;;;;;8.20;1.77;;;;;;;;;;5014304;28;19916;-76
2023/03/31 00:31:42;;;;;;;7.43;1.95;;;;;;;;;;5013081;28;20052;-77
2023/03/31 00:34:28;;;;;;;5.18;1.60;;;;;;;;;;5011427;28;20396;-80
2023/03/31 00:37:14;;;;;;;4.10;1.85;;;;;;;;;;5028608;28;20167;-76
2023/03/31 00:40:00;;;;;;;4.97;1.77;;;;;;;;;;5014114;28;20456;-77
2023/03/31 00:42:45;;;;;;;4.93;1.85;;;;;;;;;;5013740;28;20029;-80
2023/03/31 00:45:30;;;;;;;7.40;1.67;;;;;;;;;;5013123;28;20018;-78
2023/03/31 00:48:17;;;;;;;4.18;1.35;;;;;;;;;;5014604;28;20053;-79
2023/03/31 00:51:04;;;;;;;7.07;3.08;;;;;;;;;;5016488;28;20100;-79
2023/03/31 00:53:56;;;;;;;7.60;2.08;;;;;;;;;;5015105;28;20044;-78
2023/03/31 00:56:44;;;;;;;5.65;1.92;;;;;;;;;;5023533;28;20063;-79
2023/03/31 00:59:30;;;;;;;8.10;1.83;;;;;;;;;;5025518;28;20041;-79
2023/03/31 01:02:16;;;;;;;5.63;1.70;;;;;;;;;;5028413;28;20029;-76
2023/03/31 01:05:01;;;;;;;7.00;1.65;;;;;;;;;;5025486;28;20493;-75
2023/03/31 01:07:48;;;;;;;3.58;1.85;;;;;;;;;;5014816;28;20052;-75
2023/03/31 01:10:40;;;;;;;5.25;2.03;;;;;;;;;;5025407;28;20021;-75
2023/03/31 01:13:26;;;;;;;2.47;1.50;;;;;;;;;;5012459;28;20374;-73
2023/03/31 01:16:11;;;;;;;6.10;1.75;;;;;;;;;;5025768;28;20581;-74
2023/03/31 01:18:56;;;;;;;7.82;2.50;;;;;;;;;;5021967;28;20101;-74
2023/03/31 01:21:55;;;;;;;7.65;1.90;;;;;;;;;;5029692;28;20025;-78
2023/03/31 01:24:51;;;;;;;7.18;1.85;;;;;;;;;;5033244;28;20380;-80
2023/03/31 01:27:42;;;;;;;5.20;1.80;;;;;;;;;;5008213;28;20026;-81
2023/03/31 01:30:40;;;;;;;9.30;1.75;;;;;;;;;;5012793;28;20059;-78
2023/03/31 01:33:36;;;;;;;7.18;1.90;;;;;;;;;;5012237;28;20064;-77
2023/03/31 01:36:27;;;;;;;9.20;2.05;;;;;;;;;;5012410;28;20056;-77
2023/03/31 01:39:31;;;;;;;5.57;2.00;;;;;;;;;;5026296;28;20045;-73
2023/03/31 01:42:23;;;;;;;6.18;1.88;;;;;;;;;;5011349;28;20037;-74
2023/03/31 01:45:11;;;;;;;7.28;2.95;;;;;;;;;;5015656;28;20630;-73
2023/03/31 01:47:57;;;;;;;3.58;1.98;;;;;;;;;;5023765;28;20100;-74
2023/03/31 01:50:50;;;;;;;4.68;2.03;;;;;;;;;;5023901;28;20094;-74
2023/03/31 01:53:38;;;;;;;5.88;2.00;;;;;;;;;;5024785;28;20049;-73
2023/03/31 01:56:32;;;;;;;9.82;2.35;;;;;;;;;;5007957;28;20705;-71
2023/03/31 01:59:21;;;;;;;5.05;1.77;;;;;;;;;;5023486;28;20633;-73
2023/03/31 02:02:10;;;;;;;5.33;1.70;;;;;;;;;;5011151;28;20036;-73
2023/03/31 02:05:00;;;;;;;5.95;2.28;;;;;;;;;;5023289;28;20049;-74
2023/03/31 02:07:49;;;;;;;7.70;2.50;;;;;;;;;;5022541;28;20508;-75
2023/03/31 02:10:34;;;;;;;7.82;3.25;;;;;;;;;;5021997;28;20500;-72
2023/03/31 02:13:21;;;;;;;6.85;2.20;;;;;;;;;;5011293;28;20044;-74
2023/03/31 02:16:09;;;;;;;13.77;2.67;;;;;;;;;;5027412;28;20056;-76
2023/03/31 02:19:01;;;;;;;9.00;2.10;;;;;;;;;;5020420;28;20033;-74
2023/03/31 02:21:48;;;;;;;10.35;2.28;;;;;;;;;;5009705;28;20033;-77
2023/03/31 02:24:38;;;;;;;5.53;1.85;;;;;;;;;;5023360;28;20521;-76
2023/03/31 02:27:25;;;;;;;6.68;2.22;;;;;;;;;;5025842;28;20025;-76
2023/03/31 02:30:12;;;;;;;3.55;1.85;;;;;;;;;;5010245;28;20021;-76
2023/03/31 02:32:58;;;;;;;8.80;3.45;;;;;;;;;;5025459;28;20083;-73
2023/03/31 02:35:43;;;;;;;8.23;2.15;;;;;;;;;;5012312;28;20040;-72
2023/03/31 02:38:32;;;;;;;4.68;1.70;;;;;;;;;;5022899;28;20439;-71
2023/03/31 02:41:17;;;;;;;5.70;2.08;;;;;;;;;;5009955;28;20037;-71
2023/03/31 02:44:02;;;;;;;7.82;2.17;;;;;;;;;;5024830;28;20069;-74
2023/03/31 02:46:49;;;;;;;8.57;2.33;;;;;;;;;;5008784;28;20056;-72
2023/03/31 02:49:35;;;;;;;6.90;1.90;;;;;;;;;;5019629;28;20041;-72
2023/03/31 02:52:35;;;;;;;6.80;1.95;;;;;;;;;;5008713;28;20533;-76
2023/03/31 02:55:44;;;;;;;8.57;2.17;;;;;;;;;;5009923;28;20052;-76
2023/03/31 02:58:30;;;;;;;;;;;;;;;;;;5003923;28;20037;-74
2023/03/31 03:01:35;;;;;;;3.17;1.95;;;;;;;;;;5010179;28;20014;-74
2023/03/31 03:04:24;;;;;;;6.65;2.08;;;;;;;;;;5012404;28;20806;-78
2023/03/31 03:07:32;;;;;;;4.87;1.93;;;;;;;;;;5015546;28;20030;-75
2023/03/31 03:10:24;;;;;;;7.82;3.45;;;;;;;;;;5027190;28;20781;-74
2023/03/31 03:13:12;;;;;;;8.82;2.90;;;;;;;;;;5014807;28;20194;-75
2023/03/31 03:16:04;;;;;;;6.78;3.05;;;;;;;;;;5027806;28;20539;-71
2023/03/31 03:18:57;;;;;;;7.97;2.60;;;;;;;;;;5029851;28;20029;-74
2023/03/31 03:21:44;;;;;;;5.78;2.35;;;;;;;;;;5014286;28;20776;-72
2023/03/31 03:24:33;;;;;;;6.80;1.92;;;;;;;;;;5027006;28;20028;-73
2023/03/31 03:27:21;;;;;;;5.13;2.17;;;;;;;;;;5030506;28;20036;-76
2023/03/31 03:30:07;;;;;;;10.77;2.08;;;;;;;;;;5027502;28;20092;-75
2023/03/31 03:32:54;;;;;;;10.48;2.47;;;;;;;;;;5024599;28;20037;-77
2023/03/31 03:35:40;;;;;;;7.65;2.13;;;;;;;;;;5028500;28;20109;-77
2023/03/31 03:38:25;;;;;;;3.58;1.98;;;;;;;;;;5015333;28;20077;-80
2023/03/31 03:41:10;;;;;;;5.68;1.92;;;;;;;;;;5028674;28;20503;-79
2023/03/31 03:43:55;;;;;;;7.35;2.72;;;;;;;;;;5013361;28;20048;-77
2023/03/31 03:46:41;;;;;;;10.55;2.15;;;;;;;;;;5015385;28;20120;-74
2023/03/31 03:49:26;;;;;;;7.63;1.75;;;;;;;;;;5026792;28;20493;-72
2023/03/31 03:52:11;;;;;;;5.18;2.05;;;;;;;;;;5014590;28;20029;-72
2023/03/31 03:54:56;;;;;;;5.45;2.22;;;;;;;;;;5026169;28;20128;-73
2023/03/31 03:57:42;;;;;;;9.23;3.80;;;;;;;;;;5028678;28;20408;-72
2023/03/31 04:00:27;;;;;;;7.38;2.80;;;;;;;;;;5026986;28;20060;-73
2023/03/31 04:03:13;;;;;;;4.18;2.20;;;;;;;;;;5014206;28;20029;-72
2023/03/31 04:05:58;;;;;;;6.32;1.98;;;;;;;;;;5009428;28;20056;-77
2023/03/31 04:08:43;;;;;;;4.80;2.28;;;;;;;;;;5028364;28;20064;-76
2023/03/31 04:11:29;;;;;;;6.70;2.33;;;;;;;;;;5015970;28;20061;-76
2023/03/31 04:14:14;;;;;;;6.80;2.05;;;;;;;;;;5030169;28;20637;-74
2023/03/31 04:17:01;;;;;;;5.65;2.40;;;;;;;;;;5029973;28;20122;-76
2023/03/31 04:19:49;;;;;;;6.55;2.22;;;;;;;;;;5030568;28;20452;-76
2023/03/31 04:22:39;;;;;;;4.47;2.17;;;;;;;;;;5017259;28;20051;-71
2023/03/31 04:25:24;;;;;;;5.55;2.30;;;;;;;;;;5013769;28;20034;-72
2023/03/31 04:28:13;;;;;;;4.63;2.30;;;;;;;;;;5016721;28;20061;-73
2023/03/31 04:30:58;;;;;;;8.48;3.45;;;;;;;;;;5017115;28;20034;-73
2023/03/31 04:33:44;;;;;;;7.65;3.25;;;;;;;;;;5030419;28;20030;-72
2023/03/31 04:36:30;;;;;;;7.15;2.65;;;;;;;;;;5030251;28;20065;-72
2023/03/31 04:39:16;;;;;;;5.38;2.60;;;;;;;;;;5015200;28;20022;-72
2023/03/31 04:42:01;;;;;;;6.88;1.92;;;;;;;;;;5026325;28;20515;-79
2023/03/31 04:44:46;;;;;;;9.65;3.17;;;;;;;;;;5035331;28;20387;-71
2023/03/31 04:47:32;;;;;;;9.38;2.90;;;;;;;;;;5034005;28;20055;-71
2023/03/31 04:50:17;;;;;;;4.28;2.10;;;;;;;;;;5029847;28;20116;-71
2023/03/31 04:53:03;;;;;;;6.75;2.75;;;;;;;;;;5030377;28;20056;-71
2023/03/31 04:55:49;;;;;;;7.90;3.03;;;;;;;;;;5021957;28;20039;-73
2023/03/31 04:58:34;;;;;;;7.40;2.80;;;;;;;;;;5015096;28;20152;-72
2023/03/31 05:01:19;;;;;;;9.13;3.00;;;;;;;;;;5014833;28;20017;-74
2023/03/31 05:04:05;;;;;;;8.05;3.20;;;;;;;;;;5029631;28;20473;-70
2023/03/31 05:06:50;;;;;;;10.30;3.55;;;;;;;;;;5016292;28;20055;-71
2023/03/31 05:09:35;;;;;;;7.75;3.47;;;;;;;;;;5027947;28;20025;-70
2023/03/31 05:12:21;;;;;;;7.38;2.60;;;;;;;;;;5014186;28;20036;-74
2023/03/31 05:15:07;;;;;;;10.75;3.67;;;;;;;;;;5010723;28;20113;-70
2023/03/31 05:17:52;;;;;;;10.15;3.03;;;;;;;;;;5026432;28;20366;-72
2023/03/31 05:20:37;;;;;;;10.13;3.30;;;;;;;;;;5027879;28;20104;-73
2023/03/31 05:23:23;;;;;;;11.30;3.60;;;;;;;;;;5023073;28;20036;-77
2023/03/31 05:26:08;;;;;;;9.30;3.20;;;;;;;;;;5015664;28;20061;-80
2023/03/31 05:28:53;;;;;;;12.02;3.83;;;;;;;;;;5011996;28;20026;-76
2023/03/31 05:31:39;;;;;;;10.80;3.53;;;;;;;;;;5029180;28;20023;-77
2023/03/31 05:34:24;;;;;;;9.35;3.40;;;;;;;;;;5027243;28;20104;-76
2023/03/31 05:37:09;;;;;;;11.70;3.42;;;;;;;;;;5013793;28;20029;-74
2023/03/31 05:39:55;;;;;;;10.57;3.35;;;;;;;;;;5027593;28;20759;-71
2023/03/31 05:42:40;;;;;;;9.68;3.40;;;;;;;;;;5015328;28;20022;-72
2023/03/31 05:45:25;;;;;;;12.45;3.90;;;;;;;;;;5027278;28;20025;-73
2023/03/31 05:48:11;;;;;;;11.50;4.25;;;;;;;;;;5029016;28;20048;-74
2023/03/31 05:51:00;;;;;;;6.93;3.88;;;;;;;;;;5019037;28;20235;-73
2023/03/31 05:53:45;;;;;;;11.93;5.32;;;;;;;;;;5026022;28;20157;-72
2023/03/31 05:56:30;;;;;;;13.77;4.15;;;;;;;;;;5016413;28;20037;-75
2023/03/31 05:59:16;;;;;;;9.75;3.60;;;;;;;;;;5028715;28;20018;-75
2023/03/31 06:02:01;;;;;;;9.55;3.42;;;;;;;;;;5030006;28;20497;-77
2023/03/31 06:04:47;;;;;;;9.63;3.58;;;;;;;;;;5022808;28;20256;-79
2023/03/31 06:07:32;;;;;;;7.57;3.63;;;;;;;;;;5022721;28;20029;-75
2023/03/31 06:10:17;;;;;;;9.18;4.28;;;;;;;;;;5009680;28;20571;-77
2023/03/31 06:13:02;;;;;;;8.48;3.35;;;;;;;;;;5020342;28;20179;-79
2023/03/31 06:15:58;;;;;;;11.95;3.92;;;;;;;;;;5036464;28;20041;-74
2023/03/31 06:18:43;;;;;;;14.63;4.63;;;;;;;;;;5021853;28;20530;-77
2023/03/31 06:21:29;;;;;;;9.15;3.60;;;;;;;;;;5023017;28;20022;-75
2023/03/31 06:24:14;;;;;;;11.70;4.57;;;;;;;;;;5023155;28;20079;-76
2023/03/31 06:27:00;;;;;;;10.18;4.25;;;;;;;;;;5029652;28;20035;-77
2023/03/31 06:29:45;;;;;;;9.93;4.43;;;;;;;;;;5007745;28;20025;-77
2023/03/31 06:32:30;;;;;;;12.45;4.88;;;;;;;;;;5024388;28;20519;-69
2023/03/31 06:35:16;;;;;;;12.15;4.95;;;;;;;;;;5023784;28;20398;-74
2023/03/31 06:38:01;;;;;;;11.20;4.32;;;;;;;;;;5023097;28;20454;-72
2023/03/31 06:40:46;;;;;;;12.50;4.38;;;;;;;;;;5023306;28;20117;-70
2023/03/31 06:43:31;;;;;;;16.10;4.68;;;;;;;;;;5027083;28;20122;-71
2023/03/31 06:46:17;;;;;;;15.57;5.38;;;;;;;;;;5024635;28;20033;-71
2023/03/31 06:49:02;;;;;;;14.27;4.60;;;;;;;;;;5010052;28;20204;-73
2023/03/31 06:51:47;;;;;;;13.30;4.80;;;;;;;;;;5024297;28;20530;-74
2023/03/31 06:54:33;;;;;;;11.35;4.78;;;;;;;;;;5007752;28;20099;-72
2023/03/31 06:57:19;;;;;;;12.85;4.72;;;;;;;;;;5037145;28;20112;-75
2023/03/31 07:00:06;;;;;;;13.18;6.38;;;;;;;;;;5009703;28;20021;-77
2023/03/31 07:02:52;;;;;;;11.00;4.60;;;;;;;;;;5023264;28;20057;-75
2023/03/31 07:05:37;;;;;;;8.55;4.43;;;;;;;;;;5010539;28;20099;-74
2023/03/31 07:08:22;;;;;;;9.35;4.60;;;;;;;;;;5007185;28;20037;-75
2023/03/31 07:11:08;;;;;;;11.65;4.28;;;;;;;;;;5007107;28;20544;-69
2023/03/31 07:13:53;;;;;;;13.70;4.15;;;;;;;;;;5024778;28;20120;-83
2023/03/31 07:16:38;;;;;;;9.68;3.42;;;;;;;;;;5023475;28;20112;-84
2023/03/31 07:19:24;;;;;;;9.10;3.38;;;;;;;;;;5012309;28;20604;-86
2023/03/31 07:22:09;;;;;;;8.82;3.30;;;;;;;;;;5008760;28;20051;-85
2023/03/31 07:24:54;;;;;;;7.65;3.45;;;;;;;;;;5024352;28;20100;-86
2023/03/31 07:27:39;;;;;;;7.40;3.55;;;;;;;;;;5025593;28;20026;-89
2023/03/31 07:30:26;;;;;;;9.50;3.60;;;;;;;;;;5023168;28;20759;-83
2023/03/31 07:33:11;;;;;;;4.13;2.40;;;;;;;;;;5011578;28;20400;-89
2023/03/31 07:35:56;;;;;;;7.25;2.30;;;;;;;;;;5025014;28;20091;-84
2023/03/31 07:38:42;;;;;;;4.30;2.13;;;;;;;;;;5011104;28;20500;-80
2023/03/31 07:41:28;;;;;;;4.55;2.15;;;;;;;;;;5021484;28;20034;-82
2023/03/31 07:44:14;;;;;;;5.88;2.42;;;;;;;;;;5010990;28;20028;-79
2023/03/31 07:47:04;;;;;;;3.22;1.67;;;;;;;;;;5024634;28;20028;-76
2023/03/31 07:49:50;;;;;;;4.72;2.05;;;;;;;;;;5010804;28;20057;-86
2023/03/31 07:52:35;;;;;;;3.28;1.67;;;;;;;;;;5027282;28;20180;-85
2023/03/31 07:55:22;;;;;;;2.75;1.52;;;;;;;;;;5017534;28;20072;-87
2023/03/31 07:58:07;;;;;;;4.38;1.98;;;;;;;;;;5025774;28;20486;-88
2023/03/31 08:00:52;;;;;;;5.05;1.70;;;;;;;;;;5015201;28;20077;-84
2023/03/31 08:03:38;;;;;;;4.72;2.03;;;;;;;;;;5026815;28;20041;-71
2023/03/31 08:06:24;;;;;;;2.72;1.38;;;;;;;;;;5011737;28;20064;-73
2023/03/31 08:09:09;;;;;;;2.47;1.35;;;;;;;;;;5021768;28;20104;-80
2023/03/31 08:11:54;;;;;;;1.52;1.27;;;;;;;;;;5035450;28;20033;-77
2023/03/31 08:14:40;;;;;;;1.77;1.25;;;;;;;;;;5007833;28;20029;-80
2023/03/31 08:17:25;;;;;;;1.10;1.00;;;;;;;;;;5011882;28;20055;-83
2023/03/31 08:20:11;;;;;;;3.20;1.02;;;;;;;;;;5027783;28;20439;-79
2023/03/31 08:22:56;;;;;;;1.65;0.90;;;;;;;;;;5015224;28;20025;-85
2023/03/31 08:25:41;;;;;;;1.30;1.20;;;;;;;;;;5010690;28;20021;-69
2023/03/31 08:28:27;;;;;;;3.10;1.10;;;;;;;;;;5026830;28;20037;-70
2023/03/31 08:31:15;;;;;;;1.35;0.90;;;;;;;;;;5027862;28;20107;-70
2023/03/31 08:34:01;;;;;;;3.42;1.17;;;;;;;;;;5045297;28;20037;-69
2023/03/31 08:36:47;;;;;;;1.42;1.20;;;;;;;;;;5027611;28;20040;-68
2023/03/31 08:39:33;;;;;;;2.72;1.10;;;;;;;;;;5024367;28;20025;-69
2023/03/31 08:42:32;;;;;;;3.53;0.98;;;;;;;;;;5045808;28;20143;-73
2023/03/31 08:45:21;;;;;;;3.63;1.40;;;;;;;;;;5028864;28;20468;-75
2023/03/31 08:48:12;;;;;;;2.63;1.40;;;;;;;;;;5018014;28;20064;-75
2023/03/31 08:51:06;;;;;;;2.25;1.73;;;;;;;;;;5025057;28;20030;-75
2023/03/31 08:53:56;;;;;;;2.15;1.20;;;;;;;;;;5025979;28;20116;-76
2023/03/31 08:56:44;;;;;;;5.47;1.45;;;;;;;;;;5037439;28;20102;-72
2023/03/31 08:59:32;;;;;;;2.03;1.30;;;;;;;;;;5025410;28;20032;-79
2023/03/31 09:02:37;;;;;;;4.65;1.58;;;;;;;;;;5039977;28;20052;-73
2023/03/31 09:05:28;;;;;;;5.97;1.40;;;;;;;;;;5027716;28;20476;-76
2023/03/31 09:08:20;;;;;;;3.13;1.45;;;;;;;;;;5038189;28;20025;-72
2023/03/31 09:11:26;;;;;;;5.15;1.30;;;;;;;;;;5024654;28;20095;-71
2023/03/31 09:14:30;;;;;;;5.75;1.67;;;;;;;;;;5025297;28;20026;-74
2023/03/31 09:17:22;;;;;;;5.85;1.50;;;;;;;;;;5021982;28;20118;-73
2023/03/31 09:20:12;;;;;;;5.38;1.75;;;;;;;;;;5011528;28;20036;-76
2023/03/31 09:23:10;;;;;;;5.00;1.58;;;;;;;;;;5026796;28;20222;-72
2023/03/31 09:25:56;;;;;;;3.70;1.65;;;;;;;;;;5028707;28;20025;-64
2023/03/31 09:28:42;;;;;;;3.33;1.73;;;;;;;;;;5023529;28;20029;-67
2023/03/31 09:31:27;;;;;;;2.58;1.60;;;;;;;;;;5023310;28;20033;-67
2023/03/31 09:34:14;;;;;;;3.95;1.50;;;;;;;;;;5010601;28;20032;-67
2023/03/31 09:37:00;;;;;;;3.33;1.40;;;;;;;;;;5040451;28;20358;-74
2023/03/31 09:39:45;;;;;;;6.00;1.63;;;;;;;;;;5027360;28;20026;-80
2023/03/31 09:42:30;;;;;;;4.18;1.23;;;;;;;;;;5028504;28;20071;-90
2023/03/31 09:45:16;;;;;;;4.32;2.15;;;;;;;;;;5029584;28;20033;-87
2023/03/31 09:48:05;;;;;;;4.03;1.40;;;;;;;;;;5027562;28;20056;-87
2023/03/31 09:50:52;;;;;;;3.90;1.63;;;;;;;;;;5027952;28;20057;-87
2023/03/31 09:53:54;;;;;;;2.40;1.38;;;;;;;;;;5029063;28;20092;-79
2023/03/31 09:56:42;;;;;;;2.60;1.40;;;;;;;;;;5028564;28;20116;-81
2023/03/31 09:59:32;;;;;;;3.80;1.63;;;;;;;;;;5025583;28;20476;-73
2023/03/31 10:02:34;;;;;;;3.03;1.33;;;;;;;;;;5024908;28;20520;-72
2023/03/31 10:05:22;;;;;;;4.32;1.50;;;;;;;;;;5038401;28;20627;-71
2023/03/31 10:08:16;;;;;;;6.43;1.80;;;;;;;;;;5024660;28;20061;-73
2023/03/31 10:11:01;;;;;;;7.65;2.10;;;;;;;;;;5034197;28;20033;-72
2023/03/31 10:14:06;;;;;;;6.72;1.92;;;;;;;;;;5027303;28;20060;-67
2023/03/31 10:16:57;;;;;;;6.30;1.90;;;;;;;;;;5023072;28;20630;-69
2023/03/31 10:19:56;;;;;;;3.72;1.55;;;;;;;;;;5027225;28;20492;-68
2023/03/31 10:22:43;;;;;;;6.07;2.17;;;;;;;;;;5022469;28;20041;-67
2023/03/31 10:25:29;;;;;;;3.63;1.58;;;;;;;;;;5024693;28;20049;-68
2023/03/31 10:28:16;;;;;;;6.18;2.15;;;;;;;;;;5024641;28;20029;-67
2023/03/31 10:31:02;;;;;;;6.28;2.20;;;;;;;;;;5023263;28;20461;-73
2023/03/31 10:33:48;;;;;;;8.10;2.38;;;;;;;;;;5025197;28;20037;-69
2023/03/31 10:36:34;;;;;;;9.40;3.30;;;;;;;;;;5021781;28;20420;-73
2023/03/31 10:39:19;;;;;;;4.55;1.77;;;;;;;;;;5024270;28;20065;-75
2023/03/31 10:42:05;;;;;;;12.35;4.38;;;;;;;;;;5040239;28;20035;-71
2023/03/31 10:45:08;;;;;;;6.57;1.95;;;;;;;;;;5024504;28;20496;-73
2023/03/31 10:47:55;;;;;;;8.27;2.13;;;;;;;;;;5024750;28;20110;-75
2023/03/31 10:50:41;;;;;;;8.32;2.08;;;;;;;;;;5024011;28;20033;-86
2023/03/31 10:53:26;;;;;;;5.25;1.65;;;;;;;;;;5023749;28;20013;-76
2023/03/31 10:56:12;;;;;;;8.27;1.70;;;;;;;;;;5023066;28;20037;-75
2023/03/31 10:59:00;;;;;;;6.78;1.98;;;;;;;;;;5023084;28;20303;-72
2023/03/31 11:02:04;;;;;;;4.78;1.85;;;;;;;;;;5009676;28;20030;-74
2023/03/31 11:04:53;;;;;;;3.47;1.65;;;;;;;;;;5011523;28;20064;-76
2023/03/31 11:07:41;;;;;;;5.35;2.30;;;;;;;;;;5022790;28;20069;-80
2023/03/31 11:10:26;;;;;;;4.68;1.70;;;;;;;;;;5037068;28;20485;-69
2023/03/31 11:13:32;;;;;;;5.60;2.00;;;;;;;;;;5026196;28;20480;-72
2023/03/31 11:16:26;;;;;;;5.10;1.95;;;;;;;;;;5025517;28;20045;-73
2023/03/31 11:19:15;;;;;;;7.82;1.80;;;;;;;;;;5010415;28;20457;-75
2023/03/31 11:22:15;;;;;;;4.43;1.80;;;;;;;;;;5010526;28;20249;-72
2023/03/31 11:25:04;;;;;;;5.40;1.48;;;;;;;;;;5013408;28;20330;-71
2023/03/31 11:28:00;;;;;;;5.55;1.50;;;;;;;;;;5011543;28;20055;-82
2023/03/31 11:30:50;;;;;;;5.45;1.20;;;;;;;;;;5027810;28;20029;-73
2023/03/31 11:33:38;;;;;;;2.42;0.93;;;;;;;;;;5012689;28;20103;-75
2023/03/31 11:36:40;;;;;;;2.53;1.20;;;;;;;;;;5013856;28;20045;-74
2023/03/31 11:39:44;;;;;;;1.42;0.70;;;;;;;;;;5015880;28;20022;-74
2023/03/31 11:42:35;;;;;;;2.50;0.90;;;;;;;;;;5034596;28;20056;-75
2023/03/31 11:45:24;;;;;;;6.85;1.45;;;;;;;;;;5018366;28;20021;-73
2023/03/31 11:48:15;;;;;;;3.22;1.10;;;;;;;;;;5023825;28;20103;-73
2023/03/31 11:51:01;;;;;;;2.70;0.90;;;;;;;;;;5038846;28;20064;-73
2023/03/31 11:53:47;;;;;;;3.05;1.17;;;;;;;;;;5013884;28;20175;-72
2023/03/31 11:56:35;;;;;;;12.02;1.27;;;;;;;;;;5023358;28;20041;-73
2023/03/31 11:59:21;;;;;;;1.83;0.80;;;;;;;;;;5026329;28;20104;-75
2023/03/31 12:02:14;;;;;;;4.35;1.35;;;;;;;;;;5048430;28;20391;-73
2023/03/31 12:05:03;;;;;;;1.85;0.98;;;;;;;;;;5026414;28;20024;-77
2023/03/31 12:07:51;;;;;;;3.20;1.10;;;;;;;;;;5015892;28;20127;-73
2023/03/31 12:10:37;;;;;;;3.05;1.20;;;;;;;;;;5013908;28;20400;-74
2023/03/31 12:13:28;;;;;;;4.20;2.25;;;;;;;;;;5028109;28;20067;-74
2023/03/31 12:16:16;;;;;;;4.53;1.23;;;;;;;;;;5024475;28;20476;-73
2023/03/31 12:19:06;;;;;;;1.95;1.05;;;;;;;;;;5039815;28;20021;-73
2023/03/31 12:21:55;;;;;;;1.67;0.65;;;;;;;;;;5024960;28;20044;-79
2023/03/31 12:24:40;;;;;;;0.70;0.50;;;;;;;;;;5028694;28;20496;-70
2023/03/31 12:27:31;;;;;;;2.05;0.73;;;;;;;;;;5025881;28;20021;-69
2023/03/31 12:30:21;;;;;;;2.92;1.02;;;;;;;;;;5025536;28;20029;-71
2023/03/31 12:33:15;;;;;;;4.55;1.35;;;;;;;;;;5035728;28;20431;-73
2023/03/31 12:36:04;;;;;;;1.55;0.90;;;;;;;;;;5029348;28;20029;-70
2023/03/31 12:38:56;;;;;;;1.00;0.75;;;;;;;;;;5028223;28;20384;-71
2023/03/31 12:41:57;;;;;;;1.55;0.80;;;;;;;;;;5041302;28;20025;-75
2023/03/31 12:44:51;;;;;;;4.03;0.73;;;;;;;;;;5019855;28;20029;-70
2023/03/31 12:47:45;;;;;;;2.83;1.27;;;;;;;;;;5046121;28;20025;-69
2023/03/31 12:50:36;;;;;;;2.63;0.90;;;;;;;;;;5028723;28;20021;-70
2023/03/31 12:53:51;;;;;;;1.45;0.70;;;;;;;;;;5030018;28;20373;-72
2023/03/31 12:56:55;;;;;;;2.00;0.80;;;;;;;;;;4983683;28;20515;-70
2023/03/31 12:59:41;;;;;;;2.35;0.93;;;;;;;;;;5026714;28;20464;-72
2023/03/31 13:02:26;;;;;;;3.00;0.90;;;;;;;;;;5029575;28;20127;-84
2023/03/31 13:05:30;;;;;;;3.60;1.10;;;;;;;;;;5016646;28;20030;-81
2023/03/31 13:08:36;;;;;;;4.13;1.58;;;;;;;;;;5028107;28;20143;-84
2023/03/31 13:11:34;;;;;;;4.80;1.33;;;;;;;;;;5012332;28;20203;-81
2023/03/31 13:14:20;;;;;;;2.45;0.90;;;;;;;;;;5017896;28;20029;-85
2023/03/31 13:17:24;;;;;;;5.78;1.75;;;;;;;;;;5016236;28;20033;-74
2023/03/31 13:20:28;;;;;;;4.88;1.65;;;;;;;;;;5016538;28;20116;-73
2023/03/31 13:23:13;;;;;;;6.10;1.30;;;;;;;;;;5032528;28;20037;-74
2023/03/31 13:25:58;;;;;;;3.83;1.70;;;;;;;;;;5025137;28;20033;-73
2023/03/31 13:28:44;;;;;;;4.43;1.38;;;;;;;;;;5029517;28;20388;-72
2023/03/31 13:31:49;;;;;;;8.15;1.20;;;;;;;;;;5029324;28;20021;-73
2023/03/31 13:34:37;;;;;;;2.88;1.15;;;;;;;;;;5029285;28;20034;-71
2023/03/31 13:37:43;;;;;;;2.30;0.90;;;;;;;;;;5034462;28;20032;-79
2023/03/31 13:40:45;;;;;;;3.72;1.23;;;;;;;;;;5029960;28;20026;-88
2023/03/31 13:43:37;;;;;;;3.45;1.48;;;;;;;;;;5026473;28;20028;-84
2023/03/31 13:46:25;;;;;;;2.08;0.80;;;;;;;;;;5042211;28;20014;-86
2023/03/31 13:49:13;;;;;;;1.38;0.70;;;;;;;;;;5028530;28;20519;-84
2023/03/31 13:52:00;;;;;;;4.28;1.30;;;;;;;;;;5015697;28;20101;-86
2023/03/31 13:54:58;;;;;;;2.53;0.77;;;;;;;;;;5028942;28;20112;-76
2023/03/31 13:58:02;;;;;;;1.13;0.90;;;;;;;;;;5032159;28;20036;-74
2023/03/31 14:00:50;;;;;;;1.02;0.70;;;;;;;;;;5028775;28;20025;-75
2023/03/31 14:03:44;;;;;;;4.78;1.40;;;;;;;;;;5015268;28;20025;-74
2023/03/31 14:06:46;;;;;;;1.45;0.80;;;;;;;;;;5028256;28;20032;-73
2023/03/31 14:09:32;;;;;;;1.38;0.80;;;;;;;;;;5014684;28;20024;-73
2023/03/31 14:12:32;;;;;;;2.05;0.90;;;;;;;;;;5016169;28;20463;-77
2023/03/31 14:15:19;;;;;;;1.98;1.02;;;;;;;;;;5027929;28;20094;-85
2023/03/31 14:18:05;;;;;;;6.97;1.33;;;;;;;;;;5018114;28;20034;-84
2023/03/31 14:21:06;;;;;;;1.88;0.73;;;;;;;;;;5018524;28;20025;-84
2023/03/31 14:23:52;;;;;;;2.67;0.70;;;;;;;;;;5020433;28;20393;-87
2023/03/31 14:26:50;;;;;;;1.65;0.80;;;;;;;;;;5022390;28;20472;-86
2023/03/31 14:29:38;;;;;;;4.20;0.88;;;;;;;;;;5028503;28;20021;-84
2023/03/31 14:32:30;;;;;;;1.55;0.90;;;;;;;;;;5023219;28;20021;-72
2023/03/31 14:35:37;;;;;;;3.08;0.75;;;;;;;;;;5029427;28;20030;-73
2023/03/31 14:38:22;;;;;;;2.33;0.90;;;;;;;;;;5011685;28;20017;-75
2023/03/31 14:41:14;;;;;;;3.00;1.30;;;;;;;;;;5014868;28;20037;-75
2023/03/31 14:44:00;;;;;;;1.30;0.70;;;;;;;;;;5016273;28;20021;-73
2023/03/31 14:46:46;;;;;;;2.90;1.05;;;;;;;;;;5012416;28;20034;-75
2023/03/31 14:49:36;;;;;;;8.48;1.17;;;;;;;;;;5013857;28;20037;-71
2023/03/31 14:52:24;;;;;;;2.38;1.00;;;;;;;;;;5037738;28;20460;-73
2023/03/31 14:55:13;;;;;;;3.47;1.00;;;;;;;;;;5014289;28;20048;-72
2023/03/31 14:57:59;;;;;;;3.92;1.23;;;;;;;;;;5028070;28;20029;-73
2023/03/31 15:00:45;;;;;;;2.35;1.10;;;;;;;;;;5031475;28;20033;-72
2023/03/31 15:03:31;;;;;;;1.75;0.70;;;;;;;;;;5034470;28;20017;-72
2023/03/31 15:06:16;;;;;;;4.43;1.20;;;;;;;;;;5033773;28;20021;-72
2023/03/31 15:09:02;;;;;;;1.55;0.75;;;;;;;;;;5022422;28;20163;-86
2023/03/31 15:11:52;;;;;;;1.75;0.90;;;;;;;;;;5020200;28;20040;-69
2023/03/31 15:14:41;;;;;;;2.07;0.90;;;;;;;;;;5017652;28;20511;-71
2023/03/31 15:17:27;;;;;;;4.10;0.90;;;;;;;;;;5033388;28;20824;-70
2023/03/31 15:20:19;;;;;;;2.50;1.00;;;;;;;;;;5033742;28;20013;-71
2023/03/31 15:23:20;;;;;;;4.25;1.10;;;;;;;;;;5034346;28;20555;-72
2023/03/31 15:26:07;;;;;;;2.35;0.80;;;;;;;;;;5033994;28;20162;-74
2023/03/31 15:29:03;;;;;;;2.65;1.10;;;;;;;;;;5020523;28;20033;-88
2023/03/31 15:31:48;;;;;;;1.48;0.90;;;;;;;;;;5022389;28;20120;-87
2023/03/31 15:34:35;;;;;;;3.65;1.00;;;;;;;;;;5035317;28;20029;-87
2023/03/31 15:37:31;;;;;;;2.28;1.55;;;;;;;;;;5021810;28;20033;-87
2023/03/31 15:40:19;;;;;;;1.95;0.90;;;;;;;;;;5034496;28;20029;-87
2023/03/31 15:43:13;;;;;;;4.07;1.10;;;;;;;;;;5022759;28;20507;-88
2023/03/31 15:45:59;;;;;;;4.63;1.10;;;;;;;;;;5039183;28;20119;-77
2023/03/31 15:48:52;;;;;;;1.90;1.08;;;;;;;;;;5033706;28;20052;-73
2023/03/31 15:51:40;;;;;;;3.25;1.23;;;;;;;;;;5034044;28;20030;-72
2023/03/31 15:54:31;;;;;;;3.17;1.38;;;;;;;;;;5020224;28;20029;-72
2023/03/31 15:57:23;;;;;;;2.33;1.10;;;;;;;;;;5033748;28;20036;-73
2023/03/31 16:00:29;;;;;;;2.17;0.98;;;;;;;;;;5033523;28;20032;-74
2023/03/31 16:03:14;;;;;;;2.22;1.00;;;;;;;;;;5034429;28;20032;-72
2023/03/31 16:06:03;;;;;;;6.60;2.03;;;;;;;;;;5033549;28;20040;-76
2023/03/31 16:08:56;;;;;;;3.55;1.15;;;;;;;;;;5020290;28;20120;-74
2023/03/31 16:11:47;;;;;;;8.23;2.05;;;;;;;;;;5020308;28;20056;-77
2023/03/31 16:14:53;;;;;;;3.47;1.35;;;;;;;;;;5030879;28;20109;-75
2023/03/31 16:18:04;;;;;;;3.08;1.05;;;;;;;;;;5023161;28;20033;-77
2023/03/31 16:20:53;;;;;;;3.88;1.30;;;;;;;;;;5016958;28;20037;-75
2023/03/31 16:23:49;;;;;;;3.67;1.17;;;;;;;;;;5013305;28;20057;-76
2023/03/31 16:26:35;;;;;;;2.53;0.90;;;;;;;;;;5015325;28;20068;-72
2023/03/31 16:29:21;;;;;;;4.38;1.85;;;;;;;;;;5029510;28;20029;-75
2023/03/31 16:32:11;;;;;;;4.35;1.70;;;;;;;;;;5020504;28;20030;-73
2023/03/31 16:35:00;;;;;;;5.70;1.70;;;;;;;;;;5014750;28;20496;-75
2023/03/31 16:37:46;;;;;;;3.10;1.20;;;;;;;;;;5015599;28;20033;-74
2023/03/31 16:40:35;;;;;;;4.72;1.10;;;;;;;;;;5016550;28;20053;-83
2023/03/31 16:43:23;;;;;;;3.13;0.88;;;;;;;;;;5016242;28;20037;-76
2023/03/31 16:46:08;;;;;;;4.63;1.30;;;;;;;;;;5014114;28;20056;-76
2023/03/31 16:48:53;;;;;;;2.88;1.00;;;;;;;;;;5014685;28;20056;-76
2023/03/31 16:51:41;;;;;;;2.45;1.02;;;;;;;;;;5028687;28;20025;-76
2023/03/31 16:54:27;;;;;;;2.22;1.00;;;;;;;;;;5030055;28;20039;-76